首页
METAR-TAF:

METAR-TAF

机场 :

太原武宿国际机场

太原, 中华人民共和国

纬度: 37-47N, 经度: 112-33E, 海拔: 779米

当前天气观测

该预报发布于32分钟前的05:00 UTC
风速8节,风向西南,在南转南东西之间变化
温度 29°C
湿度 25%
气压 1009 hPa
能见度10公里或以上
1500米以下无云,无积雨云

METAR: ZBYN 280500Z 22004MPS 160V260 CAVOK 29/07 Q1009 NOSIG

时间: 13:32 (05:32 UTC)

预报

该预报发布于8小时和31分钟前的21:01 UTC
预报有效从28日的 00点(UTC)到 28日的 24点(UTC)
风速8节,风向南转西南
能見度: 6000

TAF: ZBYN 272101Z 2800/2824 21004MPS 6000 NSC TX30/2807Z TN17/2821Z

超过4000个机场的气象观测和天气预报(METAR&TAF报告)。

可查询的气象台以黄色和红色小点在地图上表示。

将鼠标移到小点上方,可查看气象台名称。

然后点击查看天气观测和预报。

如需切换地图:点击带黑十字的绿色按钮放大地图;点击带横线的绿色按钮缩小地图;或者点击绿色箭头查看邻近地区的地图。


METAR-TAF: